createdAt,value
2018-02-20T00:00:39.402Z,16.25
2018-02-20T00:03:05.202Z,16.19
2018-02-20T00:05:31.010Z,16.01
2018-02-20T00:07:56.839Z,16.01
2018-02-20T00:10:22.644Z,16.19
2018-02-20T00:12:48.447Z,16.18
2018-02-20T00:15:14.246Z,16.23
2018-02-20T00:17:40.075Z,16.22
2018-02-20T00:20:05.887Z,16.07
2018-02-20T00:22:31.727Z,16.15
2018-02-20T00:24:57.512Z,16.22
2018-02-20T00:27:23.349Z,16.22
2018-02-20T00:29:49.183Z,16.17
2018-02-20T00:32:14.990Z,16.25
2018-02-20T00:34:40.774Z,16.08
2018-02-20T00:37:06.569Z,16.03
2018-02-20T00:39:32.390Z,16.14
2018-02-20T00:41:58.199Z,16.15
2018-02-20T00:44:23.989Z,16.13
2018-02-20T00:46:49.780Z,16.12
2018-02-20T00:49:15.568Z,16.04
2018-02-20T00:51:41.346Z,16.03
2018-02-20T00:54:07.134Z,16.03
2018-02-20T00:56:32.975Z,15.92
2018-02-20T00:58:58.766Z,16.07
2018-02-20T01:01:24.564Z,16.13
2018-02-20T01:03:50.354Z,16.07
2018-02-20T01:06:16.167Z,16.13
2018-02-20T01:08:41.975Z,16.08
2018-02-20T01:11:07.768Z,16.19
2018-02-20T01:13:33.619Z,16.21
2018-02-20T01:15:59.433Z,16.16
2018-02-20T01:18:25.238Z,16.05
2018-02-20T01:20:51.046Z,16.18
2018-02-20T01:23:16.836Z,16.26
2018-02-20T01:25:42.678Z,16.15
2018-02-20T01:28:08.476Z,16.19
2018-02-20T01:30:34.261Z,16.14
2018-02-20T01:33:00.043Z,16.22
2018-02-20T01:35:25.833Z,16.13
2018-02-20T01:37:51.622Z,16.15
2018-02-20T01:40:17.422Z,16.19
2018-02-20T01:42:43.225Z,16.13
2018-02-20T01:45:09.026Z,16.13
2018-02-20T01:47:34.827Z,15.97
2018-02-20T01:50:00.614Z,16.05
2018-02-20T01:52:26.408Z,16.21
2018-02-20T01:54:52.195Z,16.13
2018-02-20T01:57:18.031Z,16.14
2018-02-20T01:59:43.825Z,16.13
2018-02-20T02:02:09.649Z,16.11
2018-02-20T02:04:35.443Z,16.18
2018-02-20T02:07:01.396Z,16.01
2018-02-20T02:09:27.231Z,16.19
2018-02-20T02:11:53.024Z,16.17
2018-02-20T02:14:18.859Z,16.19
2018-02-20T02:16:44.663Z,16.06
2018-02-20T02:19:10.483Z,16.08
2018-02-20T02:21:36.291Z,15.99
2018-02-20T02:24:02.134Z,16.05
2018-02-20T02:26:27.931Z,16.07
2018-02-20T02:28:53.781Z,16.12
2018-02-20T02:31:19.580Z,16.03
2018-02-20T02:33:45.408Z,16.00
2018-02-20T02:36:11.205Z,16.15
2018-02-20T02:38:37.901Z,16.10
2018-02-20T02:41:04.545Z,16.01
2018-02-20T02:43:30.381Z,15.97
2018-02-20T02:45:56.785Z,16.00
2018-02-20T02:48:22.574Z,15.96
2018-02-20T02:50:49.394Z,15.97
2018-02-20T02:53:16.087Z,15.85
2018-02-20T02:55:42.819Z,15.86
2018-02-20T02:58:08.614Z,15.86
2018-02-20T03:00:34.425Z,15.98
2018-02-20T03:03:01.163Z,15.97
2018-02-20T03:05:26.993Z,16.10
2018-02-20T03:07:53.724Z,16.06
2018-02-20T03:10:19.526Z,16.05
2018-02-20T03:12:46.177Z,15.96
2018-02-20T03:15:12.950Z,16.01
2018-02-20T03:17:39.667Z,16.09
2018-02-20T03:20:06.429Z,16.10
2018-02-20T03:22:33.188Z,16.08
2018-02-20T03:24:58.974Z,16.12
2018-02-20T03:27:24.802Z,16.00
2018-02-20T03:29:51.566Z,15.87
2018-02-20T03:32:18.222Z,15.86
2018-02-20T03:34:44.059Z,15.98
2018-02-20T03:37:10.841Z,16.08
2018-02-20T03:39:36.696Z,15.95
2018-02-20T03:42:02.494Z,15.98
2018-02-20T03:44:29.231Z,15.91
2018-02-20T03:46:55.084Z,15.97
2018-02-20T03:49:21.714Z,15.75
2018-02-20T03:51:47.502Z,15.87
2018-02-20T03:54:14.310Z,15.79
2018-02-20T03:56:41.074Z,15.81
2018-02-20T03:59:07.653Z,15.90
2018-02-20T04:01:33.474Z,15.79
2018-02-20T04:03:59.254Z,15.87
2018-02-20T04:06:25.055Z,15.90
2018-02-20T04:08:50.883Z,15.91
2018-02-20T04:11:16.668Z,15.89
2018-02-20T04:13:42.467Z,15.98
2018-02-20T04:16:08.253Z,15.90
2018-02-20T04:18:34.054Z,15.92
2018-02-20T04:20:59.845Z,15.85
2018-02-20T04:23:25.649Z,15.84
2018-02-20T04:25:51.451Z,15.91
2018-02-20T04:28:18.281Z,15.84
2018-02-20T04:30:44.106Z,15.73
2018-02-20T04:33:09.955Z,15.84
2018-02-20T04:35:36.732Z,16.02
2018-02-20T04:38:03.490Z,15.99
2018-02-20T04:40:29.270Z,15.86
2018-02-20T04:42:55.095Z,15.81
2018-02-20T04:45:21.000Z,15.74
2018-02-20T04:47:46.834Z,15.79
2018-02-20T04:50:12.629Z,15.63
2018-02-20T04:52:38.424Z,15.81
2018-02-20T04:55:04.214Z,15.81
2018-02-20T04:57:30.007Z,15.76
2018-02-20T04:59:55.832Z,15.86
2018-02-20T05:02:21.621Z,15.93
2018-02-20T05:04:47.441Z,15.93
2018-02-20T05:07:13.237Z,15.87
2018-02-20T05:09:39.035Z,15.75
2018-02-20T05:12:04.828Z,15.79
2018-02-20T05:14:30.668Z,15.89
2018-02-20T05:16:57.286Z,15.87
2018-02-20T05:19:23.101Z,15.83
2018-02-20T05:21:49.742Z,15.93
2018-02-20T05:24:15.533Z,15.90
2018-02-20T05:26:42.177Z,15.80
2018-02-20T05:29:07.999Z,15.72
2018-02-20T05:31:33.837Z,15.56
2018-02-20T05:34:00.581Z,15.50
2018-02-20T05:36:26.369Z,15.67
2018-02-20T05:38:53.141Z,15.40
2018-02-20T05:41:18.935Z,15.46
2018-02-20T05:43:45.764Z,15.44
2018-02-20T05:46:12.378Z,15.41
2018-02-20T05:48:38.175Z,15.47
2018-02-20T05:51:04.989Z,15.54
2018-02-20T05:53:31.745Z,15.53
2018-02-20T05:56:01.413Z,15.44
2018-02-20T05:58:28.053Z,15.35
2018-02-20T06:00:55.973Z,15.42
2018-02-20T06:03:22.875Z,15.40
2018-02-20T06:05:50.647Z,15.40
2018-02-20T06:08:16.571Z,15.33
2018-02-20T06:10:42.455Z,15.42
2018-02-20T06:13:08.386Z,15.28
2018-02-20T06:15:34.337Z,15.27
2018-02-20T06:18:01.177Z,15.55
2018-02-20T06:20:28.915Z,15.53
2018-02-20T06:22:54.776Z,15.60
2018-02-20T06:25:20.681Z,15.65
2018-02-20T06:27:46.508Z,15.72
2018-02-20T06:30:12.374Z,15.82
2018-02-20T06:32:38.177Z,15.69
2018-02-20T06:35:03.997Z,15.79
2018-02-20T06:37:29.791Z,15.69
2018-02-20T06:39:56.464Z,15.77
2018-02-20T06:42:22.254Z,15.57
2018-02-20T06:44:48.962Z,15.75
2018-02-20T06:47:15.743Z,15.71
2018-02-20T06:49:42.597Z,15.64
2018-02-20T06:52:09.311Z,15.71
2018-02-20T06:54:36.082Z,15.64
2018-02-20T06:57:02.832Z,15.72
2018-02-20T06:59:28.665Z,15.66
2018-02-20T07:01:54.498Z,15.64
2018-02-20T07:04:21.120Z,15.60
2018-02-20T07:06:47.007Z,15.50
2018-02-20T07:09:12.994Z,15.60
2018-02-20T07:11:39.715Z,15.61
2018-02-20T07:14:06.551Z,15.44
2018-02-20T07:16:33.398Z,15.50
2018-02-20T07:19:00.174Z,15.50
2018-02-20T07:21:26.986Z,15.46
2018-02-20T07:23:53.645Z,15.61
2018-02-20T07:26:20.399Z,15.65
2018-02-20T07:28:47.034Z,15.57
2018-02-20T07:31:13.764Z,15.64
2018-02-20T07:33:40.572Z,15.48
2018-02-20T07:36:06.410Z,15.70
2018-02-20T07:38:32.205Z,15.69
2018-02-20T07:40:58.007Z,15.70
2018-02-20T07:43:24.771Z,15.79
2018-02-20T07:45:50.578Z,15.68
2018-02-20T07:48:16.390Z,15.77
2018-02-20T07:50:42.197Z,15.61
2018-02-20T07:53:07.997Z,15.65
2018-02-20T07:55:33.790Z,15.64
2018-02-20T07:57:59.592Z,15.77
2018-02-20T08:00:26.365Z,15.62
2018-02-20T08:02:52.159Z,15.53
2018-02-20T08:05:18.001Z,15.73
2018-02-20T08:07:43.801Z,15.76
2018-02-20T08:10:09.748Z,15.92
2018-02-20T08:12:36.658Z,15.95
2018-02-20T08:15:02.446Z,15.83
2018-02-20T08:17:28.301Z,15.78
2018-02-20T08:19:54.080Z,15.73
2018-02-20T08:22:19.907Z,15.79
2018-02-20T08:24:45.702Z,15.86
2018-02-20T08:27:11.495Z,15.79
2018-02-20T08:29:38.182Z,15.67
2018-02-20T08:32:04.021Z,15.72
2018-02-20T08:34:29.801Z,15.82
2018-02-20T08:36:55.598Z,15.71
2018-02-20T08:39:21.392Z,15.80
2018-02-20T08:41:47.978Z,15.88
2018-02-20T08:44:14.787Z,15.83
2018-02-20T08:46:40.577Z,15.87
2018-02-20T08:49:06.365Z,15.85
2018-02-20T08:51:32.164Z,15.95
2018-02-20T08:53:57.951Z,15.97
2018-02-20T08:56:24.670Z,15.85
2018-02-20T08:58:50.470Z,15.81
2018-02-20T09:01:16.319Z,15.76
2018-02-20T09:03:42.116Z,15.91
2018-02-20T09:06:07.963Z,15.87
2018-02-20T09:08:33.783Z,15.79
2018-02-20T09:11:00.403Z,15.92
2018-02-20T09:13:26.244Z,15.74
2018-02-20T09:15:52.026Z,15.87
2018-02-20T09:18:17.866Z,15.70
2018-02-20T09:20:43.698Z,15.82
2018-02-20T09:23:09.620Z,15.84
2018-02-20T09:25:35.461Z,15.77
2018-02-20T09:28:01.255Z,15.68
2018-02-20T09:30:27.092Z,15.71
2018-02-20T09:32:52.882Z,15.72
2018-02-20T09:35:18.675Z,15.72
2018-02-20T09:37:44.482Z,15.74
2018-02-20T09:40:10.290Z,15.75
2018-02-20T09:42:36.127Z,15.76
2018-02-20T09:45:01.931Z,15.77
2018-02-20T09:47:27.766Z,15.86
2018-02-20T09:49:53.638Z,15.77
2018-02-20T09:52:20.320Z,15.71
2018-02-20T09:54:46.153Z,15.81
2018-02-20T09:57:11.967Z,15.87
2018-02-20T09:59:38.715Z,15.86
2018-02-20T10:02:05.584Z,15.93
2018-02-20T10:04:31.366Z,15.84
2018-02-20T10:06:58.122Z,15.84
2018-02-20T10:09:24.737Z,15.79
2018-02-20T10:11:51.465Z,15.77
2018-02-20T10:14:17.390Z,15.97
2018-02-20T10:16:43.190Z,15.91
2018-02-20T10:19:09.036Z,16.08
2018-02-20T10:21:35.769Z,15.97
2018-02-20T10:24:01.566Z,15.87
2018-02-20T10:26:27.399Z,15.82
2018-02-20T10:28:54.142Z,15.87
2018-02-20T10:31:20.855Z,15.90
2018-02-20T10:33:46.655Z,15.95
2018-02-20T10:36:13.478Z,16.07
2018-02-20T10:41:11.818Z,15.86
2018-02-20T10:43:37.644Z,15.90
2018-02-20T10:46:04.478Z,16.04
2018-02-20T10:48:31.087Z,16.01
2018-02-20T10:50:56.909Z,16.07
2018-02-20T10:53:22.734Z,15.96
2018-02-20T10:55:49.435Z,16.09
2018-02-20T10:58:16.262Z,16.11
2018-02-20T11:00:43.001Z,16.14
2018-02-20T11:03:08.818Z,16.01
2018-02-20T11:05:34.643Z,15.96
2018-02-20T11:08:01.376Z,16.05
2018-02-20T11:10:27.203Z,16.17
2018-02-20T11:12:53.989Z,16.19
2018-02-20T11:15:19.804Z,16.21
2018-02-20T11:17:45.671Z,16.26
2018-02-20T11:20:12.402Z,16.12
2018-02-20T11:22:38.221Z,16.12
2018-02-20T11:25:04.033Z,15.94
2018-02-20T11:27:29.863Z,15.94
2018-02-20T11:29:55.687Z,15.96
2018-02-20T11:32:22.452Z,16.13
2018-02-20T11:34:49.218Z,15.94
2018-02-20T11:37:15.051Z,15.96
2018-02-20T11:39:40.916Z,15.95
2018-02-20T11:42:06.740Z,16.02
2018-02-20T11:44:32.556Z,16.06
2018-02-20T11:46:58.371Z,16.00
2018-02-20T11:49:24.197Z,16.00
2018-02-20T11:51:50.031Z,15.87
2018-02-20T11:54:15.841Z,15.92
2018-02-20T11:56:41.656Z,15.96
2018-02-20T11:59:07.488Z,16.06
2018-02-20T12:01:34.387Z,16.24
2018-02-20T12:04:00.211Z,16.16
2018-02-20T12:06:26.080Z,16.17
2018-02-20T12:08:51.929Z,16.10
2018-02-20T12:11:17.755Z,16.17
2018-02-20T12:13:43.572Z,16.14
2018-02-20T12:16:10.311Z,16.23
2018-02-20T12:18:36.139Z,16.33
2018-02-20T12:21:01.954Z,16.15
2018-02-20T12:23:27.813Z,16.15
2018-02-20T12:25:53.681Z,16.21
2018-02-20T12:28:20.387Z,16.23
2018-02-20T12:30:46.209Z,16.31
2018-02-20T12:33:12.062Z,16.40
2018-02-20T12:35:37.877Z,16.40
2018-02-20T12:38:04.207Z,16.34
2018-02-20T12:40:30.023Z,16.44
2018-02-20T12:42:56.845Z,16.49
2018-02-20T12:45:23.482Z,16.32
2018-02-20T12:47:50.139Z,16.37
2018-02-20T12:50:15.981Z,16.49
2018-02-20T12:52:42.710Z,16.57
2018-02-20T12:55:09.421Z,16.50
2018-02-20T12:57:36.197Z,16.43
2018-02-20T13:00:02.964Z,16.39
2018-02-20T13:02:29.748Z,16.44
2018-02-20T13:04:56.501Z,16.34
2018-02-20T13:07:22.316Z,16.48
2018-02-20T13:09:49.029Z,16.45
2018-02-20T13:12:15.690Z,16.47
2018-02-20T13:14:41.605Z,16.66
2018-02-20T13:17:08.289Z,16.64
2018-02-20T13:19:35.034Z,16.53
2018-02-20T13:22:01.677Z,16.41
2018-02-20T13:24:27.506Z,16.63
2018-02-20T13:26:54.153Z,16.58
2018-02-20T13:29:19.962Z,16.60
2018-02-20T13:31:45.788Z,16.57
2018-02-20T13:34:11.605Z,16.42
2018-02-20T13:36:37.423Z,16.47
2018-02-20T13:39:04.216Z,16.55
2018-02-20T13:41:30.073Z,16.62
2018-02-20T13:43:56.910Z,16.71
2018-02-20T13:46:22.778Z,16.56
2018-02-20T13:48:48.602Z,16.61
2018-02-20T13:51:14.459Z,16.52
2018-02-20T13:53:41.141Z,16.56
2018-02-20T13:56:07.919Z,16.57
2018-02-20T13:58:34.717Z,16.63
2018-02-20T14:01:01.535Z,16.57
2018-02-20T14:03:28.414Z,16.63
2018-02-20T14:05:55.190Z,16.64
2018-02-20T14:08:21.962Z,16.52
2018-02-20T14:10:48.785Z,16.59
2018-02-20T14:13:14.606Z,16.57
2018-02-20T14:15:41.329Z,16.49
2018-02-20T14:18:08.029Z,16.47
2018-02-20T14:20:34.866Z,16.61
2018-02-20T14:23:01.737Z,16.54
2018-02-20T14:25:27.651Z,16.54
2018-02-20T14:27:54.394Z,16.47
2018-02-20T14:30:21.137Z,16.44
2018-02-20T14:32:47.944Z,16.50
2018-02-20T14:35:13.825Z,16.50
2018-02-20T14:37:40.633Z,16.65
2018-02-20T14:40:07.416Z,16.53
2018-02-20T14:42:34.177Z,16.59
2018-02-20T14:45:00.132Z,16.51
2018-02-20T14:47:25.954Z,16.58
2018-02-20T14:49:52.930Z,16.57
2018-02-20T14:52:19.721Z,16.61
2018-02-20T14:54:45.594Z,16.53
2018-02-20T14:57:11.436Z,16.55
2018-02-20T14:59:37.427Z,16.56
2018-02-20T15:02:03.255Z,16.50
2018-02-20T15:04:29.461Z,16.58
2018-02-20T15:06:55.425Z,16.65
2018-02-20T15:09:22.254Z,16.61
2018-02-20T15:11:48.089Z,16.69
2018-02-20T15:14:13.922Z,16.55
2018-02-20T15:16:39.737Z,16.58
2018-02-20T15:19:05.603Z,16.57
2018-02-20T15:21:31.423Z,16.55
2018-02-20T15:23:57.293Z,16.48
2018-02-20T15:26:24.017Z,16.59
2018-02-20T15:28:49.869Z,16.53
2018-02-20T15:31:15.697Z,16.35
2018-02-20T15:33:41.547Z,16.43
2018-02-20T15:36:07.394Z,16.55
2018-02-20T15:38:33.234Z,16.45
2018-02-20T15:40:59.094Z,16.48
2018-02-20T15:43:24.946Z,16.61
2018-02-20T15:45:50.982Z,16.43
2018-02-20T15:48:17.282Z,16.42
2018-02-20T15:50:43.542Z,16.43
2018-02-20T15:53:09.505Z,16.32
2018-02-20T15:55:35.343Z,15.28
2018-02-20T15:58:01.269Z,15.02
2018-02-20T16:00:27.148Z,14.35
2018-02-20T16:02:52.983Z,14.33
2018-02-20T16:05:18.867Z,14.32
2018-02-20T16:07:44.870Z,13.95
2018-02-20T16:10:11.050Z,14.92
2018-02-20T16:12:37.491Z,14.87
2018-02-20T16:15:03.579Z,13.91
2018-02-20T16:17:32.281Z,13.60
2018-02-20T16:19:59.702Z,13.74
2018-02-20T16:22:25.813Z,13.58
2018-02-20T16:24:52.629Z,13.71
2018-02-20T16:27:18.459Z,14.61
2018-02-20T16:29:44.387Z,14.58
2018-02-20T16:32:11.078Z,14.69
2018-02-20T16:34:37.906Z,14.98
2018-02-20T16:37:04.638Z,15.14
2018-02-20T16:39:30.554Z,14.84
2018-02-20T16:41:56.753Z,14.37
2018-02-20T16:44:37.654Z,14.58
2018-02-20T16:47:03.726Z,14.89
2018-02-20T16:49:30.904Z,15.01
2018-02-20T16:51:57.156Z,15.36
2018-02-20T16:54:23.310Z,15.55
2018-02-20T16:56:53.171Z,15.60
2018-02-20T16:59:19.646Z,15.59
2018-02-20T17:01:46.671Z,15.77
2018-02-20T17:04:12.926Z,15.73
2018-02-20T17:06:41.054Z,15.84
2018-02-20T17:09:07.530Z,15.85
2018-02-20T17:11:34.520Z,15.93
2018-02-20T17:14:01.808Z,15.83
2018-02-20T17:16:29.277Z,15.88
2018-02-20T17:18:56.504Z,15.97
2018-02-20T17:21:23.508Z,16.00
2018-02-20T17:23:49.838Z,15.91
2018-02-20T17:26:17.314Z,15.89
2018-02-20T17:28:44.718Z,15.96
2018-02-20T17:31:11.127Z,15.93
2018-02-20T17:33:37.495Z,15.91
2018-02-20T17:36:06.377Z,16.02
2018-02-20T17:38:33.122Z,16.03
2018-02-20T17:41:05.764Z,16.03
2018-02-20T17:43:32.385Z,15.89
2018-02-20T17:45:58.712Z,15.84
2018-02-20T17:51:16.560Z,15.93
2018-02-20T17:53:42.969Z,15.85
2018-02-20T17:56:09.441Z,16.06
2018-02-20T17:58:35.861Z,16.09
2018-02-20T18:01:03.263Z,16.04
2018-02-20T18:03:29.462Z,16.02
2018-02-20T18:05:58.795Z,16.05
2018-02-20T18:11:01.264Z,15.98
2018-02-20T18:13:36.316Z,15.98
2018-02-20T18:16:02.517Z,15.87
2018-02-20T18:21:31.056Z,15.83
2018-02-20T18:24:01.140Z,15.96
2018-02-20T18:29:16.920Z,15.86
2018-02-20T18:31:52.406Z,15.86
2018-02-20T18:34:19.462Z,15.84
2018-02-20T18:36:45.956Z,16.10
2018-02-20T18:39:12.723Z,16.05
2018-02-20T18:41:49.138Z,15.94
2018-02-20T18:44:15.671Z,15.95
2018-02-20T18:53:05.623Z,15.63
2018-02-20T19:09:02.918Z,15.64
2018-02-20T19:14:38.919Z,15.85
2018-02-20T19:17:06.674Z,15.79
2018-02-20T19:22:34.983Z,15.75
2018-02-20T19:25:01.138Z,15.78
2018-02-20T19:27:26.993Z,15.95
2018-02-20T19:29:52.810Z,15.81
2018-02-20T19:32:18.651Z,15.90
2018-02-20T19:34:44.520Z,15.94
2018-02-20T19:37:10.357Z,15.90
2018-02-20T19:39:36.297Z,15.95
2018-02-20T19:42:02.106Z,15.95
2018-02-20T19:44:27.995Z,15.95
2018-02-20T19:46:53.811Z,16.03
2018-02-20T19:49:23.247Z,15.93
2018-02-20T19:51:59.266Z,16.00
2018-02-20T19:54:26.279Z,16.04
2018-02-20T19:56:52.998Z,15.91
2018-02-20T19:59:18.832Z,15.96
2018-02-20T20:01:44.694Z,15.88
2018-02-20T20:04:10.587Z,15.84
2018-02-20T20:06:36.479Z,15.86
2018-02-20T20:09:02.492Z,15.90
2018-02-20T20:11:28.370Z,15.92
2018-02-20T20:13:54.216Z,15.87
2018-02-20T20:16:20.103Z,15.86
2018-02-20T20:18:46.133Z,15.83
2018-02-20T20:21:12.186Z,15.81
2018-02-20T20:23:38.053Z,15.80
2018-02-20T20:26:03.903Z,15.90
2018-02-20T20:28:29.807Z,15.85
2018-02-20T20:30:56.573Z,15.84
2018-02-20T20:33:22.608Z,15.95
2018-02-20T20:35:48.457Z,15.93
2018-02-20T20:38:14.310Z,15.88
2018-02-20T20:40:40.139Z,15.89
2018-02-20T20:43:07.045Z,15.88
2018-02-20T20:45:32.898Z,15.84
2018-02-20T20:47:59.730Z,15.81
2018-02-20T20:50:25.617Z,15.77
2018-02-20T20:52:52.302Z,15.76
2018-02-20T20:55:31.346Z,15.85
2018-02-20T20:57:57.197Z,15.81
2018-02-20T21:00:23.201Z,15.72
2018-02-20T21:02:49.203Z,15.68
2018-02-20T21:05:15.177Z,15.76
2018-02-20T21:07:41.022Z,15.69
2018-02-20T21:10:06.878Z,15.75
2018-02-20T21:12:32.754Z,15.79
2018-02-20T21:14:58.805Z,15.78
2018-02-20T21:17:24.661Z,15.77
2018-02-20T21:19:50.495Z,15.78
2018-02-20T21:22:16.330Z,15.76
2018-02-20T21:24:42.164Z,15.72
2018-02-20T21:27:08.137Z,15.75
2018-02-20T21:29:34.279Z,15.95
2018-02-20T21:32:00.886Z,15.81
2018-02-20T21:34:44.859Z,15.94
2018-02-20T21:37:12.617Z,15.77
2018-02-20T21:39:39.239Z,15.80
2018-02-20T21:42:05.172Z,15.88
2018-02-20T21:44:32.057Z,15.85
2018-02-20T21:46:58.735Z,15.84
2018-02-20T21:52:07.992Z,15.80
2018-02-20T21:54:46.345Z,15.87
2018-02-20T21:57:13.232Z,15.84
2018-02-20T21:59:48.197Z,15.78
2018-02-20T22:02:14.136Z,15.79
2018-02-20T22:04:39.998Z,15.79
2018-02-20T22:07:05.866Z,15.73
2018-02-20T22:09:31.693Z,15.76
2018-02-20T22:12:04.255Z,15.75
2018-02-20T22:14:30.123Z,15.78
2018-02-20T22:17:04.272Z,15.79
2018-02-20T22:19:30.146Z,15.82
2018-02-20T22:21:55.961Z,15.79
2018-02-20T22:24:21.778Z,15.74
2018-02-20T22:26:47.593Z,15.74
2018-02-20T22:29:13.459Z,15.74
2018-02-20T22:31:42.119Z,15.74
2018-02-20T22:34:07.938Z,15.79
2018-02-20T22:36:33.758Z,15.80
2018-02-20T22:38:59.579Z,15.74
2018-02-20T22:41:25.396Z,15.74
2018-02-20T22:43:53.448Z,15.75
2018-02-20T22:46:20.247Z,15.85
2018-02-20T22:48:46.102Z,15.75
2018-02-20T22:51:12.258Z,15.73
2018-02-20T22:53:43.711Z,15.79
2018-02-20T22:56:12.671Z,15.74
2018-02-20T22:58:39.592Z,15.84
2018-02-20T23:01:05.433Z,15.72
2018-02-20T23:03:32.237Z,15.62
2018-02-20T23:05:58.168Z,15.74
2018-02-20T23:08:24.029Z,15.76
2018-02-20T23:10:49.845Z,15.75
2018-02-20T23:13:15.717Z,15.83
2018-02-20T23:15:41.570Z,15.83
2018-02-20T23:18:07.382Z,15.85
2018-02-20T23:20:33.245Z,15.71
2018-02-20T23:22:59.898Z,15.77
2018-02-20T23:25:26.598Z,15.73
2018-02-20T23:27:52.418Z,15.73
2018-02-20T23:30:18.263Z,15.75
2018-02-20T23:32:45.047Z,15.85
2018-02-20T23:35:10.866Z,15.88
2018-02-20T23:37:36.687Z,15.61
2018-02-20T23:40:03.454Z,15.66
2018-02-20T23:42:30.319Z,15.69
2018-02-20T23:44:56.158Z,15.64
2018-02-20T23:47:21.978Z,15.61
2018-02-20T23:49:48.656Z,15.64
2018-02-20T23:52:15.309Z,15.54
2018-02-20T23:54:42.127Z,15.61
2018-02-20T23:57:07.939Z,15.62
2018-02-20T23:59:33.747Z,15.54
